Time;durP1;ratioP1;P1;durP2;ratioP2;P2;SDS_P1;SDS_P2;PMS_P1;PMS_P2;Temp;Humidity;BMP_temperature;BMP_pressure;BME280_temperature;BME280_humidity;BME280_pressure;Samples;Min_cycle;Max_cycle;Signal;HPM_P1;HPM_P2
2023/12/14 00:00:08;;;;;;;18.85;10.98;;;;;;;-146.27;88.46;33388.59;5095600;28;20030;-68
2023/12/14 00:02:33;;;;;;;25.70;11.35;;;;;;;-146.27;88.46;33364.78;5109012;28;20463;-68
2023/12/14 00:04:59;;;;;;;18.48;10.70;;;;;;;-146.27;88.56;33374.72;5097352;28;20035;-69
2023/12/14 00:07:24;;;;;;;18.17;9.88;;;;;;;-146.27;88.24;33396.53;5097862;28;20115;-68
2023/12/14 00:09:50;;;;;;;23.73;9.30;;;;;;;-146.27;88.56;33388.59;5093383;28;20051;-68
2023/12/14 00:12:15;;;;;;;15.98;9.77;;;;;;;-146.27;88.29;33378.69;5097024;28;20028;-69
2023/12/14 00:14:40;;;;;;;17.40;9.40;;;;;;;-146.27;88.23;33410.44;5095507;28;20912;-69
2023/12/14 00:17:06;;;;;;;19.65;10.10;;;;;;;-146.27;88.32;33358.84;5100629;28;20066;-68
2023/12/14 00:19:31;;;;;;;18.95;10.45;;;;;;;-146.27;88.02;33352.88;5092538;28;20035;-68
2023/12/14 00:21:56;;;;;;;17.33;9.50;;;;;;;-146.27;88.30;33424.31;5096930;28;20391;-70
2023/12/14 00:24:22;;;;;;;16.33;9.60;;;;;;;-146.27;88.14;33424.31;5101929;28;20472;-67
2023/12/14 00:26:47;;;;;;;18.88;10.05;;;;;;;-146.27;88.04;33406.47;5094612;28;20107;-68
2023/12/14 00:29:12;;;;;;;14.48;9.18;;;;;;;-146.27;88.02;33418.38;5095560;28;20059;-68
2023/12/14 00:31:38;;;;;;;15.35;8.77;;;;;;;-146.27;88.16;33426.28;5091885;28;20055;-68
2023/12/14 00:34:03;;;;;;;17.58;9.35;;;;;;;-146.27;88.05;33442.16;5099344;28;20020;-69
2023/12/14 00:36:28;;;;;;;16.30;9.48;;;;;;;-146.27;87.98;33448.13;5098102;28;20024;-68
2023/12/14 00:38:55;;;;;;;13.60;8.20;;;;;;;-146.27;88.11;33422.34;5101874;28;20023;-69
2023/12/14 00:41:20;;;;;;;15.40;9.05;;;;;;;-146.27;88.08;33420.34;5102997;28;20051;-70
2023/12/14 00:43:46;;;;;;;16.88;9.02;;;;;;;-146.27;88.40;33420.34;5098332;28;20027;-68
2023/12/14 00:46:11;;;;;;;16.92;9.77;;;;;;;-146.27;88.27;33462.00;5095929;28;20054;-67
2023/12/14 00:48:37;;;;;;;15.95;8.85;;;;;;;-146.27;88.05;33406.47;5073586;28;20032;-68
2023/12/14 00:51:02;;;;;;;14.50;8.85;;;;;;;-146.27;88.13;33434.22;5091290;28;20111;-67
2023/12/14 00:53:28;;;;;;;14.85;9.20;;;;;;;-146.27;88.06;33420.34;5096811;28;20100;-67
2023/12/14 00:55:53;;;;;;;14.88;8.02;;;;;;;-146.27;87.98;33408.44;5105827;28;20256;-68
2023/12/14 00:58:18;;;;;;;15.48;8.77;;;;;;;-146.27;87.67;33424.31;5095499;28;20475;-68
2023/12/14 01:00:43;;;;;;;15.90;9.63;;;;;;;-146.27;87.60;33442.16;5091992;28;20078;-69
2023/12/14 01:03:09;;;;;;;15.52;9.88;;;;;;;-146.27;87.93;33450.09;5104568;28;20061;-68
2023/12/14 01:05:34;;;;;;;20.63;9.80;;;;;;;-146.27;88.05;33434.22;5091076;28;20499;-69
2023/12/14 01:08:00;;;;;;;18.17;10.57;;;;;;;-146.27;87.92;33422.34;5098434;28;20135;-69
2023/12/14 01:10:25;;;;;;;19.92;11.18;;;;;;;-146.27;87.75;33444.16;5104888;28;20103;-68
2023/12/14 01:12:50;;;;;;;23.95;11.50;;;;;;;-146.27;87.70;33481.84;5093730;28;20031;-69
2023/12/14 01:15:16;;;;;;;20.65;10.27;;;;;;;-146.27;87.86;33444.16;5090816;28;20539;-67
2023/12/14 01:17:41;;;;;;;21.00;10.40;;;;;;;-146.27;87.67;33426.28;5098330;28;20495;-67
2023/12/14 01:20:07;;;;;;;27.77;11.32;;;;;;;-146.27;87.78;33422.34;5106363;28;20122;-67
2023/12/14 01:22:33;;;;;;;22.50;11.82;;;;;;;-146.27;87.73;33424.31;5096824;28;20036;-69
2023/12/14 01:24:59;;;;;;;21.42;12.32;;;;;;;-146.27;87.62;33396.53;5107648;28;20032;-68
2023/12/14 01:27:24;;;;;;;18.52;10.75;;;;;;;-146.27;87.60;33477.88;5102830;28;20023;-69
2023/12/14 01:29:50;;;;;;;25.67;11.10;;;;;;;-146.27;87.34;33460.03;5089773;28;20035;-67
2023/12/14 01:32:15;;;;;;;29.05;11.63;;;;;;;-146.27;87.36;33410.44;5091300;28;20062;-69
2023/12/14 01:34:41;;;;;;;20.13;11.43;;;;;;;-146.27;87.57;33448.13;5105729;28;20108;-69
2023/12/14 01:37:06;;;;;;;21.73;12.02;;;;;;;-146.27;87.43;33430.28;5089822;28;20039;-68
2023/12/14 01:39:32;;;;;;;20.02;10.73;;;;;;;-146.27;87.59;33450.09;5084707;28;20032;-69
2023/12/14 01:41:57;;;;;;;23.83;11.10;;;;;;;-146.27;87.50;33517.56;5104859;28;20031;-68
2023/12/14 01:44:23;;;;;;;21.65;10.70;;;;;;;-146.27;87.40;33529.47;5094927;28;20023;-68
2023/12/14 01:46:48;;;;;;;19.27;9.88;;;;;;;-146.27;87.19;33450.09;5102286;28;20074;-70
2023/12/14 01:49:13;;;;;;;25.88;10.82;;;;;;;-146.27;87.16;33495.75;5096433;28;20130;-67
2023/12/14 01:51:39;;;;;;;19.92;10.73;;;;;;;-146.27;86.98;33448.13;5096583;28;20023;-69
2023/12/14 01:54:04;;;;;;;20.35;10.32;;;;;;;-146.27;86.89;33426.28;5095225;28;20042;-69
2023/12/14 01:56:29;;;;;;;21.92;9.85;;;;;;;-146.27;86.67;33462.00;5095640;28;20048;-68
2023/12/14 01:58:55;;;;;;;20.30;9.98;;;;;;;-146.27;87.00;33462.00;5093631;28;20392;-68
2023/12/14 02:01:41;;;;;;;21.95;10.85;;;;;;;-146.27;87.02;33460.03;5090324;28;20024;-69
2023/12/14 02:04:07;;;;;;;20.13;9.77;;;;;;;-146.27;86.78;33467.97;5090694;28;20038;-68
2023/12/14 02:06:32;;;;;;;19.60;9.73;;;;;;;-146.27;86.80;33458.03;5103023;28;20024;-68
2023/12/14 02:08:58;;;;;;;18.08;9.88;;;;;;;-146.27;86.77;33416.38;5103101;28;20138;-68
2023/12/14 02:11:23;;;;;;;24.08;10.30;;;;;;;-146.27;86.72;33434.22;5098963;28;20032;-68
2023/12/14 02:13:48;;;;;;;22.95;10.55;;;;;;;-146.27;86.78;33473.91;5095207;28;20501;-67
2023/12/14 02:16:14;;;;;;;21.88;9.05;;;;;;;-146.27;86.78;33477.88;5093403;28;20024;-68
2023/12/14 02:18:40;;;;;;;21.92;10.55;;;;;;;-146.27;86.59;33440.19;5093780;28;20039;-68
2023/12/14 02:21:06;;;;;;;15.35;9.15;;;;;;;-146.27;87.02;33481.84;5105027;28;20099;-68
2023/12/14 02:23:31;;;;;;;19.60;9.40;;;;;;;-146.27;86.78;33438.19;5099833;28;20502;-67
2023/12/14 02:25:56;;;;;;;19.98;9.20;;;;;;;-146.27;86.57;33464.00;5104144;28;20922;-68
2023/12/14 02:28:22;;;;;;;28.05;10.27;;;;;;;-146.27;86.89;33460.03;5113167;28;20035;-67
2023/12/14 02:30:47;;;;;;;24.55;10.38;;;;;;;-146.27;86.71;33428.28;5104634;28;20048;-68
2023/12/14 02:33:12;;;;;;;18.30;9.55;;;;;;;-146.27;86.96;33469.94;5097218;28;20027;-68
2023/12/14 02:35:38;;;;;;;19.08;10.00;;;;;;;-146.27;86.61;33475.91;5107106;28;20016;-67
2023/12/14 02:38:03;;;;;;;23.02;9.50;;;;;;;-146.27;86.64;33432.25;5100278;28;20031;-69
2023/12/14 02:40:29;;;;;;;16.80;8.82;;;;;;;-146.27;86.97;33426.28;5094096;28;20024;-68
2023/12/14 02:42:54;;;;;;;17.40;8.90;;;;;;;-146.27;86.82;33410.44;5109080;28;20035;-67
2023/12/14 02:45:19;;;;;;;18.80;9.40;;;;;;;-146.27;86.67;33422.34;5100487;28;20020;-68
2023/12/14 02:47:47;;;;;;;23.23;9.20;;;;;;;-146.27;86.42;33438.19;5102312;28;20114;-68
2023/12/14 02:50:13;;;;;;;20.55;9.50;;;;;;;-146.27;86.87;33495.75;5092074;28;20040;-68
2023/12/14 02:52:38;;;;;;;15.40;7.93;;;;;;;-146.27;87.22;33517.56;5092107;28;20016;-69
2023/12/14 02:55:04;;;;;;;23.27;9.30;;;;;;;-146.27;86.84;33521.53;5100490;28;20028;-70
2023/12/14 02:57:29;;;;;;;23.95;9.50;;;;;;;-146.27;86.52;33473.91;5106342;28;20098;-68
2023/12/14 02:59:55;;;;;;;18.85;9.38;;;;;;;-146.27;86.41;33442.16;5106987;28;20538;-69
2023/12/14 03:02:20;;;;;;;21.92;9.75;;;;;;;-146.27;86.92;33509.63;5095738;28;20024;-68
2023/12/14 03:04:45;;;;;;;20.05;9.05;;;;;;;-146.27;86.50;33489.78;5097149;28;20556;-68
2023/12/14 03:07:11;;;;;;;18.35;9.02;;;;;;;-146.27;86.56;33497.72;5092641;28;20027;-69
2023/12/14 03:09:41;;;;;;;27.02;10.48;;;;;;;-146.27;86.48;33440.19;5107755;28;20020;-67
2023/12/14 03:12:06;;;;;;;19.23;9.23;;;;;;;-146.27;86.34;33452.09;5104989;28;20027;-69
2023/12/14 03:14:33;;;;;;;21.17;9.00;;;;;;;-146.27;86.21;33456.06;5078371;28;20024;-68
2023/12/14 03:16:59;;;;;;;21.00;9.32;;;;;;;-146.27;86.26;33448.13;5097665;28;20438;-68
2023/12/14 03:19:24;;;;;;;16.05;9.27;;;;;;;-146.27;86.46;33454.06;5092243;28;20016;-67
2023/12/14 03:21:49;;;;;;;17.20;9.38;;;;;;;-146.27;86.56;33450.09;5089995;28;20425;-68
2023/12/14 03:24:15;;;;;;;19.55;9.15;;;;;;;-146.27;86.59;33513.59;5102845;28;20092;-67
2023/12/14 03:26:40;;;;;;;23.17;9.63;;;;;;;-146.27;86.59;33462.00;5073859;28;20052;-67
2023/12/14 03:29:07;;;;;;;27.20;9.05;;;;;;;-146.27;86.48;33493.75;5098880;28;20020;-68
2023/12/14 03:31:33;;;;;;;17.10;8.48;;;;;;;-146.27;86.43;33511.63;5106386;28;20043;-68
2023/12/14 03:33:58;;;;;;;29.67;8.60;;;;;;;-146.27;86.30;33465.97;5099890;28;20111;-67
2023/12/14 03:36:26;;;;;;;29.85;9.57;;;;;;;-146.27;86.32;33491.78;5103775;28;20043;-69
2023/12/14 03:38:52;;;;;;;19.17;9.02;;;;;;;-146.27;86.17;33485.81;5098547;28;20356;-69
2023/12/14 03:41:17;;;;;;;18.08;8.05;;;;;;;-146.27;86.02;33467.97;5104624;28;20064;-69
2023/12/14 03:43:43;;;;;;;18.00;7.75;;;;;;;-146.27;86.14;33497.72;5101275;28;20029;-68
2023/12/14 03:46:09;;;;;;;18.80;8.18;;;;;;;-146.27;85.98;33465.97;5093567;28;20453;-69
2023/12/14 03:48:34;;;;;;;21.85;8.50;;;;;;;-146.27;85.98;33442.16;5107622;28;20019;-68
2023/12/14 03:51:04;;;;;;;16.35;7.32;;;;;;;-146.27;85.98;33477.88;5097822;28;20088;-69
2023/12/14 03:53:29;;;;;;;14.57;8.07;;;;;;;-146.27;86.08;33501.69;5096366;28;20094;-69
2023/12/14 03:55:55;;;;;;;20.42;7.75;;;;;;;-146.27;85.86;33491.78;5096352;28;20023;-68
2023/12/14 03:58:20;;;;;;;18.73;7.80;;;;;;;-146.27;85.89;33503.69;5096380;28;20031;-69
2023/12/14 04:00:45;;;;;;;20.60;7.85;;;;;;;-146.27;85.89;33497.72;5095512;28;20024;-69
2023/12/14 04:03:11;;;;;;;18.17;7.85;;;;;;;-146.27;86.03;33465.97;5093875;28;20032;-68
2023/12/14 04:05:36;;;;;;;14.50;7.63;;;;;;;-146.27;85.78;33485.81;5099659;28;20119;-68
2023/12/14 04:08:02;;;;;;;20.45;7.32;;;;;;;-146.27;86.29;33517.56;5095528;28;20028;-67
2023/12/14 04:10:27;;;;;;;15.02;6.50;;;;;;;-146.27;85.97;33487.81;5093069;28;20061;-67
2023/12/14 04:12:52;;;;;;;9.77;6.43;;;;;;;-146.27;85.72;33533.44;5096023;28;20047;-69
2023/12/14 04:15:18;;;;;;;11.05;6.13;;;;;;;-146.27;85.58;33481.84;5093230;28;20035;-68
2023/12/14 04:17:43;;;;;;;17.52;6.28;;;;;;;-146.27;85.54;33483.84;5094367;28;20023;-69
2023/12/14 04:20:09;;;;;;;12.68;5.88;;;;;;;-146.27;85.50;33553.28;5094081;28;20476;-68
2023/12/14 04:22:34;;;;;;;13.43;5.72;;;;;;;-146.27;85.37;33523.53;5105804;28;20050;-68
2023/12/14 04:25:00;;;;;;;10.35;5.88;;;;;;;-146.27;85.21;33525.50;5105359;28;20024;-69
2023/12/14 04:27:28;;;;;;;9.93;5.55;;;;;;;-146.27;84.91;33507.66;5102711;28;20031;-69
2023/12/14 04:29:54;;;;;;;11.27;5.20;;;;;;;-146.27;84.80;33573.13;5080484;28;20035;-68
2023/12/14 04:32:19;;;;;;;12.80;5.55;;;;;;;-146.27;85.10;33521.53;5095378;28;20393;-69
2023/12/14 04:34:44;;;;;;;12.70;5.80;;;;;;;-146.27;85.13;33501.69;5103825;28;20051;-69
2023/12/14 04:37:10;;;;;;;14.00;5.22;;;;;;;-146.27;85.06;33507.66;5109708;28;20483;-68
2023/12/14 04:39:35;;;;;;;9.80;5.55;;;;;;;-146.27;84.89;33517.56;5097284;28;20472;-67
2023/12/14 04:42:01;;;;;;;12.63;5.18;;;;;;;-146.27;85.04;33535.44;5090843;28;20028;-69
2023/12/14 04:44:26;;;;;;;11.77;5.60;;;;;;;-146.27;85.13;33513.59;5094569;28;20486;-68
2023/12/14 04:46:51;;;;;;;13.85;6.05;;;;;;;-146.27;85.24;33481.84;5097470;28;20063;-67
2023/12/14 04:49:19;;;;;;;8.98;5.47;;;;;;;-146.27;85.04;33513.59;5096076;28;20035;-69
2023/12/14 04:51:44;;;;;;;11.60;5.60;;;;;;;-146.27;84.96;33497.72;5093338;28;20032;-68
2023/12/14 04:54:10;;;;;;;14.93;4.93;;;;;;;-146.27;84.78;33521.53;5096911;28;20296;-68
2023/12/14 04:56:35;;;;;;;9.75;4.75;;;;;;;-146.27;84.75;33491.78;5099778;28;20056;-69
2023/12/14 04:59:01;;;;;;;11.65;4.82;;;;;;;-146.27;85.04;33503.69;5081937;28;20019;-68
2023/12/14 05:01:29;;;;;;;9.63;4.38;;;;;;;-146.27;84.85;33485.81;5104679;28;20380;-68
2023/12/14 05:03:55;;;;;;;7.03;4.38;;;;;;;-146.27;84.64;33507.66;5074252;28;20030;-68
2023/12/14 05:06:20;;;;;;;8.38;4.53;;;;;;;-146.27;84.68;33521.53;5105294;28;20107;-68
2023/12/14 05:08:46;;;;;;;8.93;4.60;;;;;;;-146.27;84.47;33513.59;5092886;28;20047;-66
2023/12/14 05:11:14;;;;;;;8.55;4.25;;;;;;;-146.27;84.45;33519.56;5106825;28;20028;-69
2023/12/14 05:13:40;;;;;;;10.48;4.75;;;;;;;-146.27;84.64;33489.78;5108306;28;20484;-68
2023/12/14 05:16:06;;;;;;;7.90;4.40;;;;;;;-146.27;84.48;33481.84;5100524;28;20041;-68
2023/12/14 05:18:32;;;;;;;7.38;4.53;;;;;;;-146.27;83.90;33531.47;5107061;28;20489;-68
2023/12/14 05:20:59;;;;;;;13.27;5.15;;;;;;;-146.27;84.28;33561.22;5104362;28;20035;-67
2023/12/14 05:23:24;;;;;;;10.50;5.10;;;;;;;-146.27;83.71;33527.50;5093823;28;20097;-67
2023/12/14 05:25:50;;;;;;;8.30;4.93;;;;;;;-146.27;83.63;33585.03;5091321;28;20031;-69
2023/12/14 05:28:15;;;;;;;9.25;4.93;;;;;;;-146.27;83.17;33575.13;5098052;28;20044;-69
2023/12/14 05:30:41;;;;;;;9.95;5.20;;;;;;;-146.27;83.30;33529.47;5106008;28;20071;-68
2023/12/14 05:33:06;;;;;;;10.18;5.07;;;;;;;-146.27;83.75;33553.28;5109284;28;20020;-68
2023/12/14 05:35:32;;;;;;;14.07;4.88;;;;;;;-146.27;84.13;33559.25;5098034;28;20181;-68
2023/12/14 05:37:57;;;;;;;12.20;5.63;;;;;;;-146.27;84.42;33529.47;5096182;28;20023;-67
2023/12/14 05:40:23;;;;;;;8.95;4.65;;;;;;;-146.27;84.28;33569.16;5099702;28;20055;-69
2023/12/14 05:42:48;;;;;;;11.02;4.75;;;;;;;-146.27;84.00;33483.84;5106859;28;20042;-68
2023/12/14 05:45:14;;;;;;;7.43;4.40;;;;;;;-146.27;84.07;33515.59;5078342;28;20092;-67
2023/12/14 05:47:41;;;;;;;9.18;4.97;;;;;;;-146.27;84.03;33527.50;5094332;28;20053;-67
2023/12/14 05:50:09;;;;;;;12.20;5.75;;;;;;;-146.27;83.83;33521.53;5090135;28;20484;-67
2023/12/14 05:52:34;;;;;;;10.25;5.30;;;;;;;-146.27;83.67;33533.44;5093256;28;20020;-69
2023/12/14 05:54:59;;;;;;;9.13;5.10;;;;;;;-146.27;83.42;33565.19;5102174;28;20027;-68
2023/12/14 05:57:25;;;;;;;10.18;5.22;;;;;;;-146.27;83.54;33565.19;5107148;28;20038;-69
2023/12/14 05:59:51;;;;;;;8.00;4.78;;;;;;;-146.27;83.51;33577.09;5106493;28;20111;-69
2023/12/14 06:02:16;;;;;;;11.23;5.00;;;;;;;-146.27;83.45;33610.84;5096230;28;20079;-67
2023/12/14 06:04:41;;;;;;;9.05;4.15;;;;;;;-146.27;83.60;33557.25;5096342;28;20027;-68
2023/12/14 06:07:06;;;;;;;7.65;4.88;;;;;;;-146.27;83.25;33561.22;5074125;28;20044;-68
2023/12/14 06:09:34;;;;;;;12.30;4.80;;;;;;;-146.27;83.25;33573.13;5108826;28;20098;-68
2023/12/14 06:12:03;;;;;;;10.15;4.10;;;;;;;-146.27;83.39;33592.97;5109180;28;20031;-69
2023/12/14 06:14:29;;;;;;;7.93;4.68;;;;;;;-146.27;83.31;33594.97;5096499;28;20035;-68
2023/12/14 06:16:55;;;;;;;8.13;4.60;;;;;;;-146.27;83.45;33569.16;5104980;28;22270;-69
2023/12/14 06:19:21;;;;;;;9.05;5.35;;;;;;;-146.27;83.16;33585.03;5101814;28;20032;-69
2023/12/14 06:21:47;;;;;;;9.20;4.78;;;;;;;-146.27;83.09;33634.66;5089541;28;20027;-68
2023/12/14 06:24:12;;;;;;;9.95;4.38;;;;;;;-146.27;83.31;33668.38;5089381;28;20032;-69
2023/12/14 06:26:44;;;;;;;9.07;4.72;;;;;;;-146.27;82.86;33644.56;5103731;28;20032;-68
2023/12/14 06:29:10;;;;;;;10.35;4.93;;;;;;;-146.27;83.38;33723.94;5104173;28;20027;-68
2023/12/14 06:31:36;;;;;;;11.85;4.43;;;;;;;-146.27;83.83;33672.34;5088669;28;20516;-68
2023/12/14 06:34:03;;;;;;;9.15;5.13;;;;;;;-146.27;83.74;33688.22;5105903;28;20020;-68
2023/12/14 06:36:33;;;;;;;7.10;5.00;;;;;;;-146.27;84.04;33684.25;5093525;28;20024;-68
2023/12/14 06:38:59;;;;;;;18.02;5.78;;;;;;;-146.27;85.09;33700.13;5097540;28;20161;-68
2023/12/14 06:41:26;;;;;;;9.13;5.50;;;;;;;-146.27;84.91;33658.44;5093953;28;20024;-68
2023/12/14 06:43:52;;;;;;;11.80;5.60;;;;;;;-146.27;84.94;33692.19;5087908;28;20552;-69
2023/12/14 06:46:17;;;;;;;13.13;6.20;;;;;;;-146.27;84.71;33628.69;5076945;28;20031;-69
2023/12/14 06:48:43;;;;;;;10.23;5.95;;;;;;;-146.27;84.31;33676.31;5109214;28;20589;-69
2023/12/14 06:51:09;;;;;;;14.88;6.97;;;;;;;-146.27;84.66;33672.34;5103494;28;20043;-68
2023/12/14 06:53:34;;;;;;;12.70;5.78;;;;;;;-146.27;84.72;33680.28;5106908;28;20380;-67
2023/12/14 06:56:00;;;;;;;9.80;6.40;;;;;;;-146.27;84.46;33721.94;5075291;28;20031;-67
2023/12/14 06:58:25;;;;;;;13.27;6.25;;;;;;;-146.27;85.07;33690.19;5092308;28;20031;-68
2023/12/14 07:00:51;;;;;;;11.52;6.15;;;;;;;-146.27;85.24;33688.22;5098115;28;20020;-68
2023/12/14 07:03:16;;;;;;;12.20;6.97;;;;;;;-146.27;85.37;33686.22;5097740;28;20036;-67
2023/12/14 07:05:41;;;;;;;14.98;6.05;;;;;;;-146.27;85.14;33680.28;5099736;28;20016;-67
2023/12/14 07:08:07;;;;;;;12.88;5.88;;;;;;;-146.27;85.29;33688.22;5103075;28;20512;-69
2023/12/14 07:10:32;;;;;;;11.05;6.05;;;;;;;-146.27;85.28;33692.19;5093547;28;20479;-69
2023/12/14 07:12:58;;;;;;;11.38;6.60;;;;;;;-146.27;85.51;33743.78;5094900;28;20028;-69
2023/12/14 07:15:24;;;;;;;17.98;6.20;;;;;;;-146.27;85.61;33739.81;5093837;28;20031;-68
2023/12/14 07:17:50;;;;;;;11.80;6.03;;;;;;;-146.27;85.75;33731.88;5098377;28;20395;-68
2023/12/14 07:20:15;;;;;;;10.75;6.25;;;;;;;-146.27;85.73;33771.56;5078478;28;20035;-68
2023/12/14 07:22:41;;;;;;;18.38;6.35;;;;;;;-146.27;86.08;33765.59;5102527;28;20368;-68
2023/12/14 07:25:08;;;;;;;12.10;6.68;;;;;;;-146.27;86.05;33779.50;5099098;28;20027;-68
2023/12/14 07:27:33;;;;;;;18.48;6.57;;;;;;;-146.27;86.72;33763.63;5095230;28;20468;-68
2023/12/14 07:29:58;;;;;;;10.45;6.10;;;;;;;-146.27;86.23;33745.75;5098282;28;20048;-68
2023/12/14 07:32:24;;;;;;;11.30;6.15;;;;;;;-146.27;86.39;33727.91;5100128;28;20040;-69
2023/12/14 07:34:49;;;;;;;12.18;6.85;;;;;;;-146.27;86.48;33785.44;5076136;28;20093;-68
2023/12/14 07:37:14;;;;;;;15.25;7.03;;;;;;;-146.27;86.59;33783.47;5093991;28;20519;-69
2023/12/14 07:39:40;;;;;;;17.77;7.43;;;;;;;-146.27;86.46;33793.38;5093087;28;20484;-68
2023/12/14 07:42:05;;;;;;;16.13;6.78;;;;;;;-146.27;86.81;33823.16;5100867;28;20073;-68
2023/12/14 07:44:31;;;;;;;15.10;6.47;;;;;;;-146.27;86.86;33805.28;5104601;28;20110;-68
2023/12/14 07:46:58;;;;;;;14.10;6.78;;;;;;;-146.27;86.93;33823.16;5113016;28;20015;-68
2023/12/14 07:49:24;;;;;;;14.65;6.75;;;;;;;-146.27;86.67;33815.22;5095955;28;20159;-69
2023/12/14 07:51:49;;;;;;;13.20;6.57;;;;;;;-146.27;87.06;33823.16;5091504;27;20032;-68
2023/12/14 07:54:15;;;;;;;12.00;6.93;;;;;;;-146.27;86.79;33831.09;5101829;27;20027;-68
2023/12/14 07:56:40;;;;;;;13.70;6.97;;;;;;;-146.27;86.55;33870.78;5097764;28;20119;-68
2023/12/14 07:59:07;;;;;;;22.23;7.47;;;;;;;-146.27;86.67;33882.69;5108571;28;20015;-70
2023/12/14 08:01:33;;;;;;;12.80;7.03;;;;;;;-146.27;87.06;33894.59;5102308;28;20016;-68
2023/12/14 08:03:58;;;;;;;16.02;7.68;;;;;;;-146.27;87.16;33908.47;5097454;28;20024;-69
2023/12/14 08:06:24;;;;;;;15.40;7.45;;;;;;;-146.27;87.14;33902.53;5104785;28;20019;-68
2023/12/14 08:08:49;;;;;;;17.55;7.53;;;;;;;-146.27;87.05;33910.47;5093975;28;20043;-68
2023/12/14 08:11:14;;;;;;;14.25;7.10;;;;;;;-146.27;87.00;33908.47;5110741;28;20019;-68
2023/12/14 08:13:40;;;;;;;14.50;7.30;;;;;;;-146.27;87.00;33882.69;5104393;28;20106;-68
2023/12/14 08:16:07;;;;;;;19.67;7.93;;;;;;;-146.27;87.60;33926.34;5099755;28;20020;-68
2023/12/14 08:18:32;;;;;;;17.42;7.93;;;;;;;-146.27;87.59;33894.59;5112103;28;20094;-68
2023/12/14 08:20:57;;;;;;;14.85;8.27;;;;;;;-146.27;87.47;33866.81;5104584;28;20110;-68
2023/12/14 08:23:24;;;;;;;13.65;8.43;;;;;;;-146.27;87.86;33900.53;5092768;28;20081;-69
2023/12/14 08:25:49;;;;;;;15.38;7.63;;;;;;;-146.27;87.92;33831.09;5082057;28;20116;-70
2023/12/14 08:28:14;;;;;;;19.75;8.57;;;;;;;-146.27;88.02;33833.06;5100172;28;20498;-67
2023/12/14 08:30:40;;;;;;;19.30;8.05;;;;;;;-146.27;88.09;33763.63;5098769;28;20115;-69
2023/12/14 08:33:05;;;;;;;16.17;7.57;;;;;;;-146.27;88.31;33783.47;5105348;28;20031;-69
2023/12/14 08:35:30;;;;;;;15.77;8.07;;;;;;;-146.27;88.05;33737.81;5105150;28;20030;-69
2023/12/14 08:37:56;;;;;;;21.70;8.52;;;;;;;-146.27;87.93;33761.63;5095239;28;20031;-69
2023/12/14 08:40:21;;;;;;;14.48;8.38;;;;;;;-146.27;87.38;33694.16;5091532;28;20043;-68
2023/12/14 08:42:47;;;;;;;16.40;8.13;;;;;;;-146.27;87.15;33716.00;5091368;28;20024;-69
2023/12/14 08:45:12;;;;;;;14.23;8.27;;;;;;;-146.27;87.17;33676.31;5093456;28;20588;-69
2023/12/14 08:47:38;;;;;;;14.20;7.72;;;;;;;-146.27;86.89;33692.19;5096707;28;20030;-68
2023/12/14 08:50:05;;;;;;;17.90;7.57;;;;;;;-146.27;86.56;33704.09;5103566;28;20078;-69
2023/12/14 08:52:30;;;;;;;16.58;8.05;;;;;;;-146.27;86.48;33672.34;5095794;28;20016;-69
2023/12/14 08:54:55;;;;;;;14.35;8.32;;;;;;;-146.27;86.63;33644.56;5092511;28;20865;-68
2023/12/14 08:57:21;;;;;;;18.13;8.32;;;;;;;-146.27;86.19;33600.91;5101473;28;20430;-68
2023/12/14 08:59:46;;;;;;;15.45;7.93;;;;;;;-146.27;85.69;33656.47;5105100;28;20054;-68
2023/12/14 09:02:12;;;;;;;20.55;7.70;;;;;;;-146.27;85.19;33596.94;5114229;27;20028;-69
2023/12/14 09:04:43;;;;;;;18.08;7.80;;;;;;;-146.27;84.88;33604.88;5104652;27;20035;-70
2023/12/14 09:07:15;;;;;;;17.20;7.45;;;;;;;-146.27;84.69;33592.97;5105485;27;20103;-69
2023/12/14 09:09:41;;;;;;;15.23;7.28;;;;;;;-146.27;84.45;33551.31;5080771;28;20034;-70
2023/12/14 09:12:06;;;;;;;18.35;7.93;;;;;;;-146.27;84.13;33533.44;5098931;28;20028;-69
2023/12/14 09:14:31;;;;;;;10.73;7.00;;;;;;;-146.27;83.53;33535.44;5074006;28;20028;-69
2023/12/14 09:16:57;;;;;;;15.05;7.18;;;;;;;-146.27;83.27;33535.44;5101740;28;20062;-69
2023/12/14 09:19:22;;;;;;;10.52;6.32;;;;;;;-146.27;82.62;33519.56;5099991;28;20027;-69
2023/12/14 09:21:48;;;;;;;23.23;7.10;;;;;;;-146.27;82.79;33537.41;5101149;28;20025;-69
2023/12/14 09:24:13;;;;;;;10.75;6.43;;;;;;;-146.27;82.48;33535.44;5094087;28;20032;-69
2023/12/14 09:26:39;;;;;;;26.17;7.50;;;;;;;-146.27;82.86;33533.44;5102881;28;20037;-68
2023/12/14 09:29:04;;;;;;;21.33;6.20;;;;;;;-146.27;84.29;33525.50;5099363;28;20050;-69
2023/12/14 09:31:29;;;;;;;22.10;8.80;;;;;;;-146.27;83.45;33501.69;5093790;28;20411;-69
2023/12/14 09:33:55;;;;;;;30.65;9.75;;;;;;;-146.27;83.73;33537.41;5094963;28;20387;-67
2023/12/14 09:36:20;;;;;;;70.70;12.88;;;;;;;-146.27;84.73;33509.63;5095171;28;20054;-69
2023/12/14 09:38:45;;;;;;;83.82;13.13;;;;;;;-146.27;84.31;33509.63;5097461;28;20475;-70
2023/12/14 09:41:11;;;;;;;27.35;8.15;;;;;;;-146.27;84.11;33517.56;5100667;28;20024;-70
2023/12/14 09:43:37;;;;;;;10.68;6.80;;;;;;;-146.27;83.58;33521.53;5106918;28;20103;-70
2023/12/14 09:46:03;;;;;;;11.57;7.78;;;;;;;-146.27;83.50;33505.66;5113916;27;20096;-69
2023/12/14 09:48:29;;;;;;;17.08;6.63;;;;;;;-146.27;82.75;33509.63;5092005;28;20023;-68
2023/12/14 09:50:55;;;;;;;12.68;7.00;;;;;;;-146.27;81.99;33489.78;5103335;28;20028;-69
2023/12/14 09:53:21;;;;;;;12.20;6.40;;;;;;;-146.27;81.29;33469.94;5081147;28;20032;-69
2023/12/14 09:55:46;;;;;;;14.15;6.32;;;;;;;-146.27;81.07;33464.00;5097440;28;20089;-73
2023/12/14 09:58:12;;;;;;;10.63;6.03;;;;;;;-146.27;81.51;33469.94;5100711;28;20077;-69
2023/12/14 10:00:41;;;;;;;10.95;5.82;;;;;;;-146.27;80.80;33424.31;5094997;28;20399;-69
2023/12/14 10:03:28;;;;;;;12.20;6.85;;;;;;;-146.27;80.05;33390.59;5100270;28;20487;-69
2023/12/14 10:05:58;;;;;;;11.48;6.10;;;;;;;-146.27;78.00;33418.38;5093829;28;20032;-71
2023/12/14 10:08:24;;;;;;;8.73;6.18;;;;;;;-146.27;78.62;33346.94;5081670;28;20088;-68
2023/12/14 10:10:52;;;;;;;15.15;6.65;;;;;;;-146.27;77.74;33331.06;5090243;28;20027;-71
2023/12/14 10:13:36;;;;;;;8.55;5.90;;;;;;;-146.27;76.82;33227.88;5094752;28;20134;-71
2023/12/14 10:16:02;;;;;;;;;;;;;;;-146.27;75.89;33144.56;5081567;28;20432;-70
2023/12/14 10:18:28;;;;;;;13.60;6.13;;;;;;;-146.27;75.20;33041.38;5076873;28;19978;-70
2023/12/14 10:20:54;;;;;;;12.15;6.07;;;;;;;-146.27;71.90;33015.59;5099345;28;20393;-70
2023/12/14 10:23:19;;;;;;;9.40;5.90;;;;;;;-146.27;70.41;32966.00;5091881;28;20020;-69
2023/12/14 10:25:45;;;;;;;11.52;6.50;;;;;;;-146.27;70.30;32964.00;5100234;28;20111;-70
2023/12/14 10:28:14;;;;;;;13.63;5.72;;;;;;;-146.27;70.41;32918.38;5114393;28;20051;-70
2023/12/14 10:30:41;;;;;;;9.45;5.78;;;;;;;-146.27;68.94;32977.91;5106307;28;20055;-71
2023/12/14 10:33:07;;;;;;;11.65;6.00;;;;;;;-146.27;68.53;32858.88;5081644;28;20098;-70
2023/12/14 10:35:32;;;;;;;11.30;5.95;;;;;;;-146.27;67.29;32876.72;5104888;28;20440;-71
2023/12/14 10:38:05;;;;;;;11.85;6.07;;;;;;;-146.27;68.22;32821.16;5106389;28;20039;-71
2023/12/14 10:40:32;;;;;;;11.30;5.65;;;;;;;-146.27;67.08;32839.03;5083155;28;20038;-70
2023/12/14 10:43:03;;;;;;;11.82;6.50;;;;;;;-146.27;67.35;32817.19;5100552;28;20401;-70
2023/12/14 10:45:32;;;;;;;13.10;5.93;;;;;;;-146.27;66.46;32757.69;5083910;27;20438;-70
2023/12/14 10:48:01;;;;;;;8.65;5.57;;;;;;;-146.27;64.42;32831.09;5105352;27;20023;-70
2023/12/14 10:50:30;;;;;;;8.27;5.22;;;;;;;-146.27;66.29;32856.88;5110326;28;20024;-71
2023/12/14 10:52:57;;;;;;;20.75;7.25;;;;;;;-146.27;66.41;32839.03;5104190;28;20024;-70
2023/12/14 10:55:25;;;;;;;9.70;6.25;;;;;;;-146.27;66.33;32890.59;5104508;28;20073;-70
2023/12/14 10:57:54;;;;;;;13.65;6.30;;;;;;;-146.27;67.52;32930.28;5115674;27;20509;-71
2023/12/14 11:00:19;;;;;;;11.40;6.60;;;;;;;-146.27;68.22;32999.72;5114803;27;20069;-71
2023/12/14 11:02:46;;;;;;;11.05;6.60;;;;;;;-146.27;67.77;33039.41;5098615;27;20023;-71